createdAt,value
2023-05-06T00:01:09.306Z,11.90
2023-05-06T00:03:35.962Z,13.17
2023-05-06T00:06:06.350Z,10.60
2023-05-06T00:08:32.906Z,10.33
2023-05-06T00:10:59.448Z,12.53
2023-05-06T00:13:25.982Z,12.43
2023-05-06T00:15:52.587Z,11.73
2023-05-06T00:18:19.158Z,12.63
2023-05-06T00:20:45.631Z,13.40
2023-05-06T00:23:12.214Z,13.90
2023-05-06T00:25:38.741Z,10.30
2023-05-06T00:28:05.200Z,11.77
2023-05-06T00:30:31.706Z,11.60
2023-05-06T00:32:58.303Z,11.27
2023-05-06T00:35:24.816Z,12.13
2023-05-06T00:38:07.712Z,12.97
2023-05-06T00:40:34.311Z,12.53
2023-05-06T00:43:00.817Z,12.27
2023-05-06T00:45:27.416Z,12.83
2023-05-06T00:47:54.423Z,12.33
2023-05-06T00:50:21.761Z,13.17
2023-05-06T00:52:49.231Z,10.07
2023-05-06T00:55:16.122Z,11.20
2023-05-06T00:57:42.701Z,11.33
2023-05-06T01:00:11.514Z,11.33
2023-05-06T01:02:46.304Z,10.70
2023-05-06T01:05:14.162Z,11.30
2023-05-06T01:07:58.801Z,11.37
2023-05-06T01:10:35.598Z,10.33
2023-05-06T01:13:07.158Z,10.57
2023-05-06T01:15:43.183Z,11.70
2023-05-06T01:18:13.686Z,9.10
2023-05-06T01:20:42.227Z,10.70
2023-05-06T01:23:15.061Z,13.17
2023-05-06T01:25:41.966Z,9.93
2023-05-06T01:28:11.421Z,11.93
2023-05-06T01:30:49.879Z,12.13
2023-05-06T01:33:29.480Z,9.87
2023-05-06T01:36:08.785Z,9.73
2023-05-06T01:39:01.226Z,12.43
2023-05-06T01:41:28.220Z,11.37
2023-05-06T01:43:56.633Z,11.97
2023-05-06T01:46:24.744Z,8.30
2023-05-06T01:48:54.218Z,11.53
2023-05-06T01:51:22.122Z,10.27
2023-05-06T01:53:48.569Z,9.50
2023-05-06T01:56:15.110Z,9.87
2023-05-06T01:58:41.533Z,9.17
2023-05-06T02:01:08.003Z,11.20
2023-05-06T02:03:34.582Z,8.57
2023-05-06T02:06:01.095Z,9.40
2023-05-06T02:08:27.511Z,9.70
2023-05-06T02:10:54.130Z,9.87
2023-05-06T02:13:20.740Z,12.40
2023-05-06T02:15:47.300Z,11.17
2023-05-06T02:18:13.700Z,9.57
2023-05-06T02:20:40.270Z,11.40
2023-05-06T02:23:06.798Z,9.23
2023-05-06T02:25:33.521Z,11.37
2023-05-06T02:27:59.956Z,10.20
2023-05-06T02:30:30.489Z,10.30
2023-05-06T02:32:57.552Z,9.33
2023-05-06T02:35:24.565Z,9.40
2023-05-06T02:37:51.116Z,10.30
2023-05-06T02:40:17.607Z,9.87
2023-05-06T02:42:44.148Z,9.53
2023-05-06T02:45:11.411Z,11.40
2023-05-06T02:47:38.209Z,10.20
2023-05-06T02:50:04.933Z,11.73
2023-05-06T02:52:32.521Z,10.63
2023-05-06T02:54:59.097Z,11.73
2023-05-06T02:57:25.675Z,10.07
2023-05-06T02:59:52.096Z,10.07
2023-05-06T03:02:18.510Z,11.33
2023-05-06T03:04:44.992Z,9.67
2023-05-06T03:07:12.609Z,8.80
2023-05-06T03:09:39.467Z,9.50
2023-05-06T03:12:06.219Z,11.20
2023-05-06T03:14:33.777Z,10.17
2023-05-06T03:17:00.463Z,9.87
2023-05-06T03:19:27.004Z,9.40
2023-05-06T03:21:53.501Z,9.97
2023-05-06T03:24:20.070Z,10.50
2023-05-06T03:26:46.581Z,8.63
2023-05-06T03:29:13.116Z,7.97
2023-05-06T03:31:41.986Z,10.07
2023-05-06T03:34:08.585Z,8.77
2023-05-06T03:36:35.050Z,8.27
2023-05-06T03:39:01.747Z,9.50
2023-05-06T03:41:28.223Z,11.47
2023-05-06T03:43:55.768Z,10.10
2023-05-06T03:46:22.557Z,9.00
2023-05-06T03:48:49.130Z,9.67
2023-05-06T03:51:15.693Z,9.53
2023-05-06T03:53:42.292Z,10.27
2023-05-06T03:56:08.915Z,9.80
2023-05-06T03:58:35.875Z,9.10
2023-05-06T04:01:02.360Z,8.93
2023-05-06T04:03:28.966Z,9.93
2023-05-06T04:05:55.638Z,8.83
2023-05-06T04:08:22.134Z,8.77
2023-05-06T04:10:48.710Z,9.97
2023-05-06T04:13:15.446Z,8.70
2023-05-06T04:15:42.587Z,6.87
2023-05-06T04:18:09.189Z,8.63
2023-05-06T04:20:35.843Z,8.23
2023-05-06T04:23:02.392Z,10.37
2023-05-06T04:25:28.877Z,9.07
2023-05-06T04:27:55.461Z,8.47
2023-05-06T04:30:22.562Z,9.37
2023-05-06T04:32:49.108Z,9.57
2023-05-06T04:35:16.290Z,9.70
2023-05-06T04:37:43.498Z,9.87
2023-05-06T04:40:12.966Z,8.63
2023-05-06T04:42:39.600Z,8.70
2023-05-06T04:45:06.593Z,7.63
2023-05-06T04:47:33.946Z,8.97
2023-05-06T04:50:00.359Z,9.60
2023-05-06T04:52:26.885Z,8.33
2023-05-06T04:54:53.327Z,8.53
2023-05-06T04:57:19.754Z,9.23
2023-05-06T04:59:46.635Z,10.47
2023-05-06T05:02:13.115Z,9.77
2023-05-06T05:04:39.721Z,11.67
2023-05-06T05:07:07.356Z,8.70
2023-05-06T05:09:34.944Z,9.67
2023-05-06T05:12:04.368Z,10.50
2023-05-06T05:14:30.862Z,9.53
2023-05-06T05:16:57.483Z,9.53
2023-05-06T05:19:23.976Z,12.13
2023-05-06T05:21:50.526Z,13.47
2023-05-06T05:24:16.962Z,11.37
2023-05-06T05:26:43.565Z,9.10
2023-05-06T05:29:10.140Z,12.47
2023-05-06T05:31:36.701Z,11.47
2023-05-06T05:34:03.262Z,10.93
2023-05-06T05:36:29.745Z,11.13
2023-05-06T05:38:57.141Z,12.07
2023-05-06T05:41:23.674Z,13.57
2023-05-06T05:43:50.110Z,12.77
2023-05-06T05:46:17.062Z,11.77
2023-05-06T05:48:44.575Z,9.40
2023-05-06T05:51:11.164Z,14.07
2023-05-06T05:53:37.892Z,13.40
2023-05-06T05:56:04.622Z,9.83
2023-05-06T05:58:31.017Z,11.07
2023-05-06T06:00:57.440Z,7.47
2023-05-06T06:03:24.015Z,10.40
2023-05-06T06:05:52.882Z,15.67
2023-05-06T06:08:19.463Z,9.77
2023-05-06T06:10:46.216Z,8.80
2023-05-06T06:13:13.354Z,11.07
2023-05-06T06:15:40.402Z,8.23
2023-05-06T06:18:08.781Z,9.07
2023-05-06T06:20:35.900Z,8.97
2023-05-06T06:23:02.449Z,14.60
2023-05-06T06:25:29.076Z,8.83
2023-05-06T06:27:57.165Z,10.47
2023-05-06T06:30:24.191Z,18.00
2023-05-06T06:32:52.936Z,13.07
2023-05-06T06:35:26.107Z,18.43
2023-05-06T06:37:52.747Z,7.93
2023-05-06T06:40:19.955Z,9.00
2023-05-06T06:42:49.386Z,7.90
2023-05-06T06:45:15.894Z,8.97
2023-05-06T06:47:42.458Z,10.27
2023-05-06T06:50:09.843Z,10.40
2023-05-06T06:52:36.282Z,10.67
2023-05-06T06:55:03.169Z,9.30
2023-05-06T06:57:29.626Z,9.47
2023-05-06T06:59:56.270Z,12.00
2023-05-06T07:02:22.996Z,16.57
2023-05-06T07:04:49.523Z,11.73
2023-05-06T07:07:16.025Z,19.20
2023-05-06T07:09:44.181Z,12.87
2023-05-06T07:12:10.730Z,10.90
2023-05-06T07:14:37.200Z,12.10
2023-05-06T07:17:03.701Z,19.40
2023-05-06T07:19:31.559Z,13.67
2023-05-06T07:21:58.075Z,12.47
2023-05-06T07:24:24.688Z,11.60
2023-05-06T07:26:51.164Z,14.73
2023-05-06T07:29:17.695Z,13.40
2023-05-06T07:31:44.285Z,13.30
2023-05-06T07:34:11.055Z,11.33
2023-05-06T07:36:40.820Z,10.90
2023-05-06T07:39:07.899Z,10.50
2023-05-06T07:41:34.537Z,11.53
2023-05-06T07:44:01.264Z,10.43
2023-05-06T07:46:27.874Z,9.43
2023-05-06T07:48:54.541Z,9.47
2023-05-06T07:51:21.712Z,9.43
2023-05-06T07:53:48.149Z,11.57
2023-05-06T07:56:14.662Z,8.70
2023-05-06T07:58:41.209Z,10.77
2023-05-06T08:01:07.743Z,10.07
2023-05-06T08:03:35.667Z,8.90
2023-05-06T08:06:02.375Z,9.70
2023-05-06T08:08:29.177Z,13.43
2023-05-06T08:10:56.118Z,8.77
2023-05-06T08:13:22.724Z,6.77
2023-05-06T08:15:49.571Z,7.00
2023-05-06T08:18:22.477Z,11.13
2023-05-06T08:20:49.712Z,8.37
2023-05-06T08:23:16.289Z,6.90
2023-05-06T08:25:43.006Z,8.23
2023-05-06T08:28:09.464Z,9.03
2023-05-06T08:30:36.638Z,8.03
2023-05-06T08:33:03.331Z,6.23
2023-05-06T08:35:31.041Z,12.17
2023-05-06T08:37:57.442Z,10.60
2023-05-06T08:40:26.966Z,11.07
2023-05-06T08:42:56.045Z,14.03
2023-05-06T08:45:23.597Z,10.03
2023-05-06T08:47:50.097Z,7.17
2023-05-06T08:50:16.720Z,8.93
2023-05-06T08:52:43.916Z,8.07
2023-05-06T08:55:11.556Z,9.17
2023-05-06T08:57:38.495Z,6.67
2023-05-06T09:00:05.783Z,7.83
2023-05-06T09:02:32.389Z,7.30
2023-05-06T09:04:59.807Z,12.90
2023-05-06T09:07:26.452Z,9.27
2023-05-06T09:09:52.918Z,7.20
2023-05-06T09:12:21.377Z,8.13
2023-05-06T09:14:50.158Z,4.27
2023-05-06T09:17:24.357Z,6.37
2023-05-06T09:19:54.858Z,7.30
2023-05-06T09:22:22.309Z,8.00
2023-05-06T09:24:57.998Z,4.40
2023-05-06T09:27:29.509Z,7.13
2023-05-06T09:30:05.365Z,6.50
2023-05-06T09:32:32.841Z,6.80
2023-05-06T09:34:59.650Z,5.63
2023-05-06T09:37:27.272Z,6.17
2023-05-06T09:39:56.363Z,7.50
2023-05-06T09:42:25.513Z,10.13
2023-05-06T09:44:54.780Z,11.40
2023-05-06T09:47:22.865Z,8.83
2023-05-06T09:49:49.431Z,9.17
2023-05-06T09:52:16.365Z,10.57
2023-05-06T09:54:43.288Z,10.20
2023-05-06T09:57:10.487Z,9.13
2023-05-06T09:59:38.262Z,10.27
2023-05-06T10:02:04.865Z,8.83
2023-05-06T10:04:35.059Z,12.57
2023-05-06T10:07:03.263Z,9.17
2023-05-06T10:09:30.002Z,12.40
2023-05-06T10:11:57.356Z,11.87
2023-05-06T10:14:23.778Z,12.73
2023-05-06T10:16:50.534Z,9.27
2023-05-06T10:19:21.077Z,11.43
2023-05-06T10:21:54.052Z,8.00
2023-05-06T10:24:29.202Z,11.23
2023-05-06T10:26:56.491Z,7.10
2023-05-06T10:29:26.061Z,8.23
2023-05-06T10:31:57.326Z,10.83
2023-05-06T10:34:25.609Z,11.50
2023-05-06T10:36:57.542Z,8.27
2023-05-06T10:39:24.902Z,7.17
2023-05-06T10:41:51.404Z,9.87
2023-05-06T10:44:17.882Z,12.17
2023-05-06T10:46:59.726Z,10.10
2023-05-06T10:49:27.036Z,8.27
2023-05-06T10:52:14.634Z,12.60
2023-05-06T10:54:49.546Z,6.80
2023-05-06T10:57:16.159Z,7.13
2023-05-06T10:59:47.132Z,6.43
2023-05-06T11:02:14.013Z,7.70
2023-05-06T11:04:40.848Z,9.17
2023-05-06T11:07:10.663Z,8.00
2023-05-06T11:10:06.167Z,8.10
2023-05-06T11:12:53.638Z,8.50
2023-05-06T11:15:26.795Z,8.40
2023-05-06T11:17:56.769Z,9.90
2023-05-06T11:20:25.276Z,7.30
2023-05-06T11:22:52.759Z,13.40
2023-05-06T11:25:42.508Z,8.03
2023-05-06T11:28:11.756Z,5.73
2023-05-06T11:30:41.563Z,10.10
2023-05-06T11:33:17.075Z,8.97
2023-05-06T11:35:45.107Z,9.37
2023-05-06T11:38:12.141Z,9.40
2023-05-06T11:40:41.559Z,8.13
2023-05-06T11:43:12.488Z,8.93
2023-05-06T11:45:47.628Z,7.40
2023-05-06T11:48:18.124Z,7.83
2023-05-06T11:50:47.341Z,6.27
2023-05-06T11:53:16.571Z,7.67
2023-05-06T11:55:44.462Z,7.37
2023-05-06T11:58:24.981Z,6.93
2023-05-06T12:01:01.779Z,7.00
2023-05-06T12:03:31.275Z,9.60
2023-05-06T12:05:58.669Z,8.60
2023-05-06T12:08:33.636Z,8.17
2023-05-06T12:11:05.357Z,7.23
2023-05-06T12:13:32.616Z,6.60
2023-05-06T12:16:00.520Z,8.90
2023-05-06T12:18:27.832Z,7.13
2023-05-06T12:20:55.163Z,8.43
2023-05-06T12:23:22.145Z,6.73
2023-05-06T12:26:09.202Z,7.43
2023-05-06T12:28:36.826Z,9.30
2023-05-06T12:31:23.355Z,9.07
2023-05-06T12:33:50.553Z,10.17
2023-05-06T12:36:19.087Z,12.30
2023-05-06T12:38:58.856Z,9.63
2023-05-06T12:41:44.559Z,10.17
2023-05-06T12:44:50.604Z,10.07
2023-05-06T12:47:24.914Z,12.63
2023-05-06T12:49:55.143Z,11.30
2023-05-06T12:52:23.611Z,7.27
2023-05-06T12:54:52.833Z,11.60
2023-05-06T12:57:19.619Z,9.77
2023-05-06T12:59:46.248Z,10.23
2023-05-06T13:02:13.469Z,8.97
2023-05-06T13:04:40.785Z,12.73
2023-05-06T13:07:07.458Z,11.50
2023-05-06T13:09:34.055Z,9.57
2023-05-06T13:12:02.364Z,11.07
2023-05-06T13:14:28.808Z,7.27
2023-05-06T13:16:55.272Z,6.17
2023-05-06T13:19:32.347Z,7.60
2023-05-06T13:22:00.449Z,7.40
2023-05-06T13:24:27.195Z,7.00
2023-05-06T13:26:53.763Z,7.27
2023-05-06T13:29:20.348Z,6.43
2023-05-06T13:31:46.792Z,6.23
2023-05-06T13:34:13.226Z,7.17
2023-05-06T13:36:39.739Z,6.10
2023-05-06T13:39:06.448Z,6.77
2023-05-06T13:41:33.034Z,6.13
2023-05-06T13:43:59.528Z,7.33
2023-05-06T13:46:27.283Z,7.03
2023-05-06T13:48:53.975Z,8.50
2023-05-06T13:51:20.753Z,5.67
2023-05-06T13:53:47.284Z,5.70
2023-05-06T13:56:13.818Z,5.67
2023-05-06T13:58:40.281Z,7.63
2023-05-06T14:01:07.282Z,10.70
2023-05-06T14:03:33.860Z,13.37
2023-05-06T14:06:01.367Z,8.10
2023-05-06T14:08:27.849Z,9.40
2023-05-06T14:10:54.401Z,9.80
2023-05-06T14:13:21.023Z,10.87
2023-05-06T14:15:47.646Z,6.87
2023-05-06T14:18:14.333Z,8.40
2023-05-06T14:20:41.307Z,9.80
2023-05-06T14:23:08.032Z,10.40
2023-05-06T14:25:34.741Z,10.53
2023-05-06T14:28:01.279Z,7.40
2023-05-06T14:30:27.795Z,10.70
2023-05-06T14:32:54.340Z,5.93
2023-05-06T14:35:20.975Z,8.97
2023-05-06T14:37:47.443Z,12.47
2023-05-06T14:40:15.470Z,9.33
2023-05-06T14:42:41.992Z,7.93
2023-05-06T14:45:09.089Z,5.83
2023-05-06T14:47:35.945Z,11.33
2023-05-06T14:50:02.615Z,9.00
2023-05-06T14:52:29.091Z,11.13
2023-05-06T14:54:55.616Z,8.17
2023-05-06T14:57:22.474Z,6.47
2023-05-06T14:59:50.526Z,9.63
2023-05-06T15:02:16.968Z,8.43
2023-05-06T15:04:43.467Z,11.80
2023-05-06T15:07:10.966Z,9.83
2023-05-06T15:09:39.951Z,6.03
2023-05-06T15:12:06.811Z,11.70
2023-05-06T15:14:33.258Z,11.07
2023-05-06T15:16:59.756Z,9.80
2023-05-06T15:19:26.334Z,5.90
2023-05-06T15:21:52.709Z,12.00
2023-05-06T15:24:19.193Z,8.37
2023-05-06T15:26:45.898Z,10.80
2023-05-06T15:29:12.437Z,11.27
2023-05-06T15:31:40.900Z,7.10
2023-05-06T15:34:09.520Z,10.53
2023-05-06T15:36:36.106Z,10.83
2023-05-06T15:39:03.194Z,12.57
2023-05-06T15:41:32.423Z,13.40
2023-05-06T15:44:00.430Z,8.67
2023-05-06T15:46:28.029Z,11.03
2023-05-06T15:49:09.037Z,10.93
2023-05-06T15:51:40.974Z,12.67
2023-05-06T15:54:07.454Z,12.30
2023-05-06T15:56:39.285Z,11.10
2023-05-06T15:59:08.333Z,10.63
2023-05-06T16:02:04.647Z,10.63
2023-05-06T16:04:22.038Z,9.57
2023-05-06T16:06:49.484Z,11.07
2023-05-06T16:09:16.008Z,8.33
2023-05-06T16:11:42.424Z,10.90
2023-05-06T16:14:08.925Z,9.37
2023-05-06T16:16:35.640Z,10.63
2023-05-06T16:19:02.224Z,10.33
2023-05-06T16:21:28.734Z,9.90
2023-05-06T16:23:55.247Z,9.37
2023-05-06T16:26:22.136Z,12.57
2023-05-06T16:28:48.598Z,9.60
2023-05-06T16:31:15.157Z,8.57
2023-05-06T16:33:41.628Z,7.17
2023-05-06T16:36:08.327Z,12.10
2023-05-06T16:38:34.774Z,11.53
2023-05-06T16:41:01.367Z,12.00
2023-05-06T16:43:27.896Z,12.97
2023-05-06T16:45:54.393Z,8.00
2023-05-06T16:48:21.179Z,13.13
2023-05-06T16:50:47.788Z,10.77
2023-05-06T16:53:15.822Z,15.47
2023-05-06T16:55:47.528Z,10.50
2023-05-06T16:58:14.199Z,12.50
2023-05-06T17:00:41.521Z,13.07
2023-05-06T17:03:08.619Z,12.20
2023-05-06T17:05:35.279Z,11.97
2023-05-06T17:08:03.513Z,12.63
2023-05-06T17:10:30.111Z,14.50
2023-05-06T17:12:58.327Z,12.60
2023-05-06T17:15:25.784Z,14.10
2023-05-06T17:17:52.610Z,13.70
2023-05-06T17:20:22.826Z,17.30
2023-05-06T17:22:49.838Z,14.40
2023-05-06T17:25:16.578Z,13.47
2023-05-06T17:27:43.106Z,10.77
2023-05-06T17:30:09.954Z,10.43
2023-05-06T17:32:36.677Z,11.77
2023-05-06T17:35:03.574Z,11.87
2023-05-06T17:37:31.567Z,10.03
2023-05-06T17:39:58.209Z,15.47
2023-05-06T17:42:24.835Z,27.70
2023-05-06T17:44:51.338Z,11.00
2023-05-06T17:47:18.171Z,20.67
2023-05-06T17:49:45.661Z,36.33
2023-05-06T17:52:12.280Z,16.37
2023-05-06T17:54:38.831Z,16.03
2023-05-06T17:57:05.346Z,13.50
2023-05-06T17:59:32.170Z,13.50
2023-05-06T18:01:58.968Z,13.97
2023-05-06T18:04:25.567Z,12.13
2023-05-06T18:06:52.263Z,12.50
2023-05-06T18:09:19.538Z,15.03
2023-05-06T18:11:46.336Z,11.67
2023-05-06T18:14:13.065Z,13.07
2023-05-06T18:16:39.634Z,12.73
2023-05-06T18:19:06.225Z,16.23
2023-05-06T18:21:34.566Z,10.50
2023-05-06T18:24:15.414Z,11.07
2023-05-06T18:26:44.478Z,15.93
2023-05-06T18:29:12.325Z,9.07
2023-05-06T18:31:39.110Z,13.43
2023-05-06T18:34:05.696Z,12.40
2023-05-06T18:36:32.636Z,12.83
2023-05-06T18:38:59.173Z,10.83
2023-05-06T18:41:25.747Z,11.73
2023-05-06T18:43:52.338Z,15.60
2023-05-06T18:46:20.075Z,16.50
2023-05-06T18:48:46.605Z,13.63
2023-05-06T18:51:15.229Z,8.47
2023-05-06T18:53:42.152Z,11.97
2023-05-06T18:56:09.253Z,11.03
2023-05-06T18:58:37.592Z,11.03
2023-05-06T19:01:05.185Z,13.90
2023-05-06T19:03:34.381Z,11.80
2023-05-06T19:06:03.189Z,10.47
2023-05-06T19:08:31.162Z,8.63
2023-05-06T19:11:01.571Z,15.93
2023-05-06T19:13:28.686Z,10.33
2023-05-06T19:15:57.098Z,10.33
2023-05-06T19:18:23.639Z,12.37
2023-05-06T19:20:51.418Z,10.20
2023-05-06T19:23:18.517Z,9.70
2023-05-06T19:25:44.955Z,11.83
2023-05-06T19:28:12.108Z,9.50
2023-05-06T19:30:38.603Z,12.60
2023-05-06T19:33:05.196Z,15.63
2023-05-06T19:35:31.839Z,14.53
2023-05-06T19:37:58.731Z,9.80
2023-05-06T19:40:25.515Z,12.60
2023-05-06T19:42:52.308Z,11.57
2023-05-06T19:45:19.518Z,10.63
2023-05-06T19:47:46.418Z,12.40
2023-05-06T19:50:13.247Z,11.13
2023-05-06T19:52:40.555Z,11.57
2023-05-06T19:55:07.548Z,10.33
2023-05-06T19:57:34.127Z,14.03
2023-05-06T20:00:05.138Z,12.63
2023-05-06T20:02:32.841Z,12.00
2023-05-06T20:05:00.475Z,10.70
2023-05-06T20:07:27.444Z,10.80
2023-05-06T20:09:55.934Z,10.60
2023-05-06T20:12:23.618Z,9.90
2023-05-06T20:14:50.255Z,14.90
2023-05-06T20:17:16.955Z,14.20
2023-05-06T20:19:44.966Z,11.60
2023-05-06T20:22:11.815Z,9.60
2023-05-06T20:24:38.323Z,10.83
2023-05-06T20:27:04.920Z,12.57
2023-05-06T20:29:31.493Z,12.43
2023-05-06T20:31:58.265Z,10.53
2023-05-06T20:34:24.919Z,12.90
2023-05-06T20:36:54.211Z,10.30
2023-05-06T20:39:22.016Z,9.47
2023-05-06T20:41:48.526Z,8.83
2023-05-06T20:44:15.243Z,12.50
2023-05-06T20:46:42.704Z,14.43
2023-05-06T20:49:09.117Z,9.73
2023-05-06T20:51:35.628Z,9.87
2023-05-06T20:54:02.030Z,9.77
2023-05-06T20:56:28.809Z,9.63
2023-05-06T20:58:55.921Z,14.20
2023-05-06T21:01:23.950Z,13.40
2023-05-06T21:03:50.685Z,8.07
2023-05-06T21:06:18.619Z,11.10
2023-05-06T21:08:46.478Z,12.13
2023-05-06T21:11:13.318Z,10.03
2023-05-06T21:13:40.133Z,9.60
2023-05-06T21:16:06.666Z,10.67
2023-05-06T21:18:33.217Z,17.80
2023-05-06T21:20:59.868Z,9.17
2023-05-06T21:23:26.551Z,14.30
2023-05-06T21:25:53.071Z,12.53
2023-05-06T21:28:19.754Z,16.83
2023-05-06T21:30:46.282Z,12.60
2023-05-06T21:33:12.741Z,16.70
2023-05-06T21:35:39.218Z,17.20
2023-05-06T21:38:05.628Z,19.40
2023-05-06T21:40:32.139Z,18.63
2023-05-06T21:42:58.598Z,17.20
2023-05-06T21:45:25.155Z,20.90
2023-05-06T21:47:51.679Z,18.70
2023-05-06T21:50:18.154Z,20.70
2023-05-06T21:52:44.569Z,20.33
2023-05-06T21:55:11.301Z,21.13
2023-05-06T21:57:38.773Z,22.07
2023-05-06T22:00:11.759Z,25.07
2023-05-06T22:02:40.007Z,24.07
2023-05-06T22:05:08.154Z,22.63
2023-05-06T22:07:35.769Z,23.53
2023-05-06T22:10:02.438Z,23.40
2023-05-06T22:12:28.994Z,23.07
2023-05-06T22:14:55.921Z,23.23
2023-05-06T22:17:22.423Z,25.40
2023-05-06T22:19:49.067Z,24.20
2023-05-06T22:22:16.148Z,23.07
2023-05-06T22:24:42.693Z,27.30
2023-05-06T22:27:09.126Z,20.50
2023-05-06T22:29:35.669Z,23.27
2023-05-06T22:32:02.313Z,19.93
2023-05-06T22:34:28.804Z,18.53
2023-05-06T22:36:57.601Z,18.60
2023-05-06T22:39:24.837Z,18.93
2023-05-06T22:41:51.380Z,21.17
2023-05-06T22:44:17.811Z,18.93
2023-05-06T22:46:44.482Z,18.90
2023-05-06T22:49:10.953Z,16.20
2023-05-06T22:51:37.420Z,19.23
2023-05-06T22:54:03.858Z,18.03
2023-05-06T22:56:30.352Z,17.50
2023-05-06T22:58:56.880Z,20.83
2023-05-06T23:01:25.155Z,22.67
2023-05-06T23:03:51.902Z,18.43
2023-05-06T23:06:18.624Z,21.10
2023-05-06T23:08:45.045Z,20.90
2023-05-06T23:11:11.541Z,20.07
2023-05-06T23:13:38.159Z,21.90
2023-05-06T23:16:05.257Z,22.87
2023-05-06T23:18:31.877Z,20.93
2023-05-06T23:20:58.352Z,23.17
2023-05-06T23:23:24.761Z,20.37
2023-05-06T23:25:51.259Z,24.07
2023-05-06T23:28:17.696Z,21.30
2023-05-06T23:30:44.110Z,20.00
2023-05-06T23:33:10.741Z,20.10
2023-05-06T23:35:37.230Z,24.10
2023-05-06T23:38:03.779Z,18.13
2023-05-06T23:40:30.413Z,20.63
2023-05-06T23:42:56.890Z,20.50
2023-05-06T23:45:25.677Z,20.50
2023-05-06T23:47:52.968Z,18.50
2023-05-06T23:50:19.850Z,19.10
2023-05-06T23:52:46.364Z,19.73
2023-05-06T23:55:13.304Z,17.93
2023-05-06T23:57:40.026Z,23.77
